sensor_id;sensor_type;location;lat;lon;timestamp;temperature;humidity
13982;DHT22;7065;50.880;5.502;2023-04-01T00:00:53;9.30;99.90
13982;DHT22;7065;50.880;5.502;2023-04-01T00:03:20;9.30;99.90
13982;DHT22;7065;50.880;5.502;2023-04-01T00:05:47;9.30;99.90
13982;DHT22;7065;50.880;5.502;2023-04-01T00:08:12;9.20;99.90
13982;DHT22;7065;50.880;5.502;2023-04-01T00:10:39;9.30;99.90
13982;DHT22;7065;50.880;5.502;2023-04-01T00:13:05;9.30;99.90
13982;DHT22;7065;50.880;5.502;2023-04-01T00:15:30;9.30;99.90
13982;DHT22;7065;50.880;5.502;2023-04-01T00:17:56;9.20;99.90
13982;DHT22;7065;50.880;5.502;2023-04-01T00:20:22;9.30;99.90
13982;DHT22;7065;50.880;5.502;2023-04-01T00:22:48;9.20;99.90
13982;DHT22;7065;50.880;5.502;2023-04-01T00:25:14;9.30;99.90
13982;DHT22;7065;50.880;5.502;2023-04-01T00:27:40;9.30;99.90
13982;DHT22;7065;50.880;5.502;2023-04-01T00:30:07;9.30;99.90
13982;DHT22;7065;50.880;5.502;2023-04-01T00:32:33;9.20;99.90
13982;DHT22;7065;50.880;5.502;2023-04-01T00:35:00;9.20;99.90
13982;DHT22;7065;50.880;5.502;2023-04-01T00:37:27;9.20;99.90
13982;DHT22;7065;50.880;5.502;2023-04-01T00:39:53;9.30;99.90
13982;DHT22;7065;50.880;5.502;2023-04-01T00:42:19;9.20;99.90
13982;DHT22;7065;50.880;5.502;2023-04-01T00:44:54;9.30;99.90
13982;DHT22;7065;50.880;5.502;2023-04-01T00:47:22;9.20;99.90
13982;DHT22;7065;50.880;5.502;2023-04-01T00:49:51;9.20;99.90
13982;DHT22;7065;50.880;5.502;2023-04-01T00:52:20;9.30;99.90
13982;DHT22;7065;50.880;5.502;2023-04-01T00:54:50;9.20;99.90
13982;DHT22;7065;50.880;5.502;2023-04-01T00:57:19;9.30;99.90
13982;DHT22;7065;50.880;5.502;2023-04-01T00:59:49;9.30;99.90
13982;DHT22;7065;50.880;5.502;2023-04-01T01:02:18;9.30;99.90
13982;DHT22;7065;50.880;5.502;2023-04-01T01:04:44;9.20;99.90
13982;DHT22;7065;50.880;5.502;2023-04-01T01:15:41;9.30;99.90
13982;DHT22;7065;50.880;5.502;2023-04-01T01:35:22;9.20;99.90
13982;DHT22;7065;50.880;5.502;2023-04-01T01:37:53;9.20;99.90
13982;DHT22;7065;50.880;5.502;2023-04-01T01:40:20;9.20;99.90
13982;DHT22;7065;50.880;5.502;2023-04-01T01:42:49;9.20;99.90
13982;DHT22;7065;50.880;5.502;2023-04-01T01:45:19;9.20;99.90
13982;DHT22;7065;50.880;5.502;2023-04-01T01:47:46;9.20;99.90
13982;DHT22;7065;50.880;5.502;2023-04-01T01:50:14;9.20;99.90
13982;DHT22;7065;50.880;5.502;2023-04-01T01:52:41;9.20;99.90
13982;DHT22;7065;50.880;5.502;2023-04-01T01:55:33;9.20;99.90
13982;DHT22;7065;50.880;5.502;2023-04-01T01:58:06;9.20;99.90
13982;DHT22;7065;50.880;5.502;2023-04-01T02:00:36;9.10;99.90
13982;DHT22;7065;50.880;5.502;2023-04-01T02:03:02;9.10;99.90
13982;DHT22;7065;50.880;5.502;2023-04-01T02:05:29;9.10;99.90
13982;DHT22;7065;50.880;5.502;2023-04-01T02:08:19;9.20;99.90
13982;DHT22;7065;50.880;5.502;2023-04-01T02:10:54;9.10;99.90
13982;DHT22;7065;50.880;5.502;2023-04-01T02:16:13;9.20;99.90
13982;DHT22;7065;50.880;5.502;2023-04-01T02:18:41;9.20;99.90
13982;DHT22;7065;50.880;5.502;2023-04-01T02:21:09;9.20;99.90
13982;DHT22;7065;50.880;5.502;2023-04-01T02:23:36;9.20;99.90
13982;DHT22;7065;50.880;5.502;2023-04-01T02:26:05;9.20;99.90
13982;DHT22;7065;50.880;5.502;2023-04-01T02:28:31;9.20;99.90
13982;DHT22;7065;50.880;5.502;2023-04-01T02:30:59;9.10;99.90
13982;DHT22;7065;50.880;5.502;2023-04-01T02:33:28;9.10;99.90
13982;DHT22;7065;50.880;5.502;2023-04-01T02:35:55;9.10;99.90
13982;DHT22;7065;50.880;5.502;2023-04-01T02:38:21;9.10;99.90
13982;DHT22;7065;50.880;5.502;2023-04-01T02:40:51;9.10;99.90
13982;DHT22;7065;50.880;5.502;2023-04-01T02:43:17;9.10;99.90
13982;DHT22;7065;50.880;5.502;2023-04-01T02:45:44;9.10;99.90
13982;DHT22;7065;50.880;5.502;2023-04-01T02:48:10;9.10;99.90
13982;DHT22;7065;50.880;5.502;2023-04-01T02:50:35;9.10;99.90
13982;DHT22;7065;50.880;5.502;2023-04-01T02:53:01;9.10;99.90
13982;DHT22;7065;50.880;5.502;2023-04-01T02:55:29;9.10;99.90
13982;DHT22;7065;50.880;5.502;2023-04-01T02:57:55;9.10;99.90
13982;DHT22;7065;50.880;5.502;2023-04-01T03:00:21;9.10;99.90
13982;DHT22;7065;50.880;5.502;2023-04-01T03:02:47;9.10;99.90
13982;DHT22;7065;50.880;5.502;2023-04-01T03:05:13;9.10;99.90
13982;DHT22;7065;50.880;5.502;2023-04-01T03:07:38;9.10;99.90
13982;DHT22;7065;50.880;5.502;2023-04-01T03:10:06;9.10;99.90
13982;DHT22;7065;50.880;5.502;2023-04-01T03:12:31;9.10;99.90
13982;DHT22;7065;50.880;5.502;2023-04-01T03:14:58;9.10;99.90
13982;DHT22;7065;50.880;5.502;2023-04-01T03:17:23;9.10;99.90
13982;DHT22;7065;50.880;5.502;2023-04-01T03:19:49;9.10;99.90
13982;DHT22;7065;50.880;5.502;2023-04-01T03:22:15;9.10;99.90
13982;DHT22;7065;50.880;5.502;2023-04-01T03:24:41;9.10;99.90
13982;DHT22;7065;50.880;5.502;2023-04-01T03:27:07;9.10;99.90
13982;DHT22;7065;50.880;5.502;2023-04-01T03:29:32;9.10;99.90
13982;DHT22;7065;50.880;5.502;2023-04-01T03:31:58;9.00;99.90
13982;DHT22;7065;50.880;5.502;2023-04-01T03:34:25;9.10;99.90
13982;DHT22;7065;50.880;5.502;2023-04-01T03:36:51;9.10;99.90
13982;DHT22;7065;50.880;5.502;2023-04-01T03:39:17;9.10;99.90
13982;DHT22;7065;50.880;5.502;2023-04-01T03:41:46;9.10;99.90
13982;DHT22;7065;50.880;5.502;2023-04-01T03:44:12;9.00;99.90
13982;DHT22;7065;50.880;5.502;2023-04-01T03:46:38;9.00;99.90
13982;DHT22;7065;50.880;5.502;2023-04-01T03:49:07;9.00;99.90
13982;DHT22;7065;50.880;5.502;2023-04-01T03:51:38;9.00;99.90
13982;DHT22;7065;50.880;5.502;2023-04-01T03:54:04;9.00;99.90
13982;DHT22;7065;50.880;5.502;2023-04-01T03:56:31;9.00;99.90
13982;DHT22;7065;50.880;5.502;2023-04-01T03:58:57;9.00;99.90
13982;DHT22;7065;50.880;5.502;2023-04-01T04:01:22;9.00;99.90
13982;DHT22;7065;50.880;5.502;2023-04-01T04:03:50;9.00;99.90
13982;DHT22;7065;50.880;5.502;2023-04-01T04:06:17;9.00;99.90
13982;DHT22;7065;50.880;5.502;2023-04-01T04:08:44;9.00;99.90
13982;DHT22;7065;50.880;5.502;2023-04-01T04:11:10;9.00;99.90
13982;DHT22;7065;50.880;5.502;2023-04-01T04:13:36;9.00;99.90
13982;DHT22;7065;50.880;5.502;2023-04-01T04:16:03;9.00;99.90
13982;DHT22;7065;50.880;5.502;2023-04-01T04:18:29;8.90;99.90
13982;DHT22;7065;50.880;5.502;2023-04-01T04:20:55;9.00;99.90
13982;DHT22;7065;50.880;5.502;2023-04-01T04:23:21;8.90;99.90
13982;DHT22;7065;50.880;5.502;2023-04-01T04:28:22;8.90;99.90
13982;DHT22;7065;50.880;5.502;2023-04-01T04:30:47;8.90;99.90
13982;DHT22;7065;50.880;5.502;2023-04-01T04:33:14;8.90;99.90
13982;DHT22;7065;50.880;5.502;2023-04-01T04:35:39;8.90;99.90
13982;DHT22;7065;50.880;5.502;2023-04-01T04:38:05;8.90;99.90
13982;DHT22;7065;50.880;5.502;2023-04-01T04:40:31;8.90;99.90
13982;DHT22;7065;50.880;5.502;2023-04-01T04:42:56;8.90;99.90
13982;DHT22;7065;50.880;5.502;2023-04-01T04:45:22;8.90;99.90
13982;DHT22;7065;50.880;5.502;2023-04-01T04:47:48;8.90;99.90
13982;DHT22;7065;50.880;5.502;2023-04-01T04:50:14;8.90;99.90
13982;DHT22;7065;50.880;5.502;2023-04-01T04:52:40;8.90;99.90
13982;DHT22;7065;50.880;5.502;2023-04-01T04:55:06;8.90;99.90
13982;DHT22;7065;50.880;5.502;2023-04-01T04:57:31;8.90;99.90
13982;DHT22;7065;50.880;5.502;2023-04-01T04:59:57;8.90;99.90
13982;DHT22;7065;50.880;5.502;2023-04-01T05:02:23;8.90;99.90
13982;DHT22;7065;50.880;5.502;2023-04-01T05:04:48;8.90;99.90
13982;DHT22;7065;50.880;5.502;2023-04-01T05:07:14;8.90;99.90
13982;DHT22;7065;50.880;5.502;2023-04-01T05:09:40;8.90;99.90
13982;DHT22;7065;50.880;5.502;2023-04-01T05:12:06;8.90;99.90
13982;DHT22;7065;50.880;5.502;2023-04-01T05:14:32;8.90;99.90
13982;DHT22;7065;50.880;5.502;2023-04-01T05:16:58;8.90;99.90
13982;DHT22;7065;50.880;5.502;2023-04-01T05:19:23;8.90;99.90
13982;DHT22;7065;50.880;5.502;2023-04-01T05:21:49;8.90;99.90
13982;DHT22;7065;50.880;5.502;2023-04-01T05:24:15;8.90;99.90
13982;DHT22;7065;50.880;5.502;2023-04-01T05:26:41;8.90;99.90
13982;DHT22;7065;50.880;5.502;2023-04-01T05:29:07;8.90;99.90
13982;DHT22;7065;50.880;5.502;2023-04-01T05:31:33;8.90;99.90
13982;DHT22;7065;50.880;5.502;2023-04-01T05:33:58;8.90;99.90
13982;DHT22;7065;50.880;5.502;2023-04-01T05:36:24;8.90;99.90
13982;DHT22;7065;50.880;5.502;2023-04-01T05:38:50;8.90;99.90
13982;DHT22;7065;50.880;5.502;2023-04-01T05:41:16;8.90;99.90
13982;DHT22;7065;50.880;5.502;2023-04-01T05:43:42;8.90;99.90
13982;DHT22;7065;50.880;5.502;2023-04-01T05:46:07;8.90;99.90
13982;DHT22;7065;50.880;5.502;2023-04-01T05:48:34;8.90;99.90
13982;DHT22;7065;50.880;5.502;2023-04-01T05:51:03;8.90;99.90
13982;DHT22;7065;50.880;5.502;2023-04-01T05:53:29;8.90;99.90
13982;DHT22;7065;50.880;5.502;2023-04-01T05:55:55;8.90;99.90
13982;DHT22;7065;50.880;5.502;2023-04-01T05:58:20;8.90;99.90
13982;DHT22;7065;50.880;5.502;2023-04-01T06:00:46;8.90;99.90
13982;DHT22;7065;50.880;5.502;2023-04-01T06:03:12;8.90;99.90
13982;DHT22;7065;50.880;5.502;2023-04-01T06:05:43;8.90;99.90
13982;DHT22;7065;50.880;5.502;2023-04-01T06:08:17;8.90;99.90
13982;DHT22;7065;50.880;5.502;2023-04-01T06:13:31;8.90;99.90
13982;DHT22;7065;50.880;5.502;2023-04-01T06:28:04;8.90;99.90
13982;DHT22;7065;50.880;5.502;2023-04-01T06:31:03;8.90;99.90
13982;DHT22;7065;50.880;5.502;2023-04-01T06:52:27;8.90;99.90
13982;DHT22;7065;50.880;5.502;2023-04-01T06:55:02;8.90;99.90
13982;DHT22;7065;50.880;5.502;2023-04-01T06:57:57;8.90;99.90
13982;DHT22;7065;50.880;5.502;2023-04-01T07:00:35;8.90;99.90
13982;DHT22;7065;50.880;5.502;2023-04-01T07:03:20;8.90;99.90
13982;DHT22;7065;50.880;5.502;2023-04-01T07:05:46;9.00;99.90
13982;DHT22;7065;50.880;5.502;2023-04-01T07:08:20;8.90;99.90
13982;DHT22;7065;50.880;5.502;2023-04-01T07:11:09;9.00;99.90
13982;DHT22;7065;50.880;5.502;2023-04-01T07:13:36;9.00;99.90
13982;DHT22;7065;50.880;5.502;2023-04-01T07:16:18;9.00;99.90
13982;DHT22;7065;50.880;5.502;2023-04-01T07:18:48;9.00;99.90
13982;DHT22;7065;50.880;5.502;2023-04-01T07:21:43;9.00;99.90
13982;DHT22;7065;50.880;5.502;2023-04-01T07:24:25;9.00;99.90
13982;DHT22;7065;50.880;5.502;2023-04-01T07:26:55;9.00;99.90
13982;DHT22;7065;50.880;5.502;2023-04-01T07:29:21;9.00;99.90
13982;DHT22;7065;50.880;5.502;2023-04-01T07:34:32;9.00;99.90
13982;DHT22;7065;50.880;5.502;2023-04-01T07:37:15;9.00;99.90
13982;DHT22;7065;50.880;5.502;2023-04-01T07:40:08;9.00;99.90
13982;DHT22;7065;50.880;5.502;2023-04-01T07:45:30;9.00;99.90
13982;DHT22;7065;50.880;5.502;2023-04-01T07:48:28;9.00;99.90
13982;DHT22;7065;50.880;5.502;2023-04-01T07:56:51;9.00;99.90
13982;DHT22;7065;50.880;5.502;2023-04-01T08:25:39;9.00;99.90
13982;DHT22;7065;50.880;5.502;2023-04-01T08:30:43;9.10;99.90
13982;DHT22;7065;50.880;5.502;2023-04-01T08:33:24;9.10;99.90
13982;DHT22;7065;50.880;5.502;2023-04-01T08:35:56;9.10;99.90
13982;DHT22;7065;50.880;5.502;2023-04-01T08:38:44;9.10;99.90
13982;DHT22;7065;50.880;5.502;2023-04-01T08:52:35;9.20;99.90
13982;DHT22;7065;50.880;5.502;2023-04-01T08:55:35;9.20;99.90
13982;DHT22;7065;50.880;5.502;2023-04-01T09:01:03;9.30;99.90
13982;DHT22;7065;50.880;5.502;2023-04-01T09:06:42;9.30;99.90
13982;DHT22;7065;50.880;5.502;2023-04-01T09:09:34;9.30;99.90
13982;DHT22;7065;50.880;5.502;2023-04-01T09:15:20;9.30;99.90
13982;DHT22;7065;50.880;5.502;2023-04-01T09:26:29;9.50;99.90
13982;DHT22;7065;50.880;5.502;2023-04-01T09:29:12;9.40;99.90
13982;DHT22;7065;50.880;5.502;2023-04-01T09:39:37;9.50;99.90
13982;DHT22;7065;50.880;5.502;2023-04-01T09:42:16;9.50;99.90
13982;DHT22;7065;50.880;5.502;2023-04-01T09:45:00;9.50;99.90
13982;DHT22;7065;50.880;5.502;2023-04-01T09:50:34;9.60;99.90
13982;DHT22;7065;50.880;5.502;2023-04-01T09:59:05;9.70;99.90
13982;DHT22;7065;50.880;5.502;2023-04-01T10:20:54;10.20;99.90
13982;DHT22;7065;50.880;5.502;2023-04-01T10:32:18;10.00;99.90
13982;DHT22;7065;50.880;5.502;2023-04-01T10:51:20;10.00;99.90
13982;DHT22;7065;50.880;5.502;2023-04-01T10:54:04;10.10;99.90
13982;DHT22;7065;50.880;5.502;2023-04-01T11:09:03;10.20;99.90
13982;DHT22;7065;50.880;5.502;2023-04-01T11:11:23;10.20;99.90
13982;DHT22;7065;50.880;5.502;2023-04-01T11:22:47;9.90;99.90
13982;DHT22;7065;50.880;5.502;2023-04-01T11:33:43;10.00;99.90
13982;DHT22;7065;50.880;5.502;2023-04-01T11:41:41;10.00;99.90
13982;DHT22;7065;50.880;5.502;2023-04-01T12:00:12;10.10;99.90
13982;DHT22;7065;50.880;5.502;2023-04-01T12:13:42;10.20;99.90
13982;DHT22;7065;50.880;5.502;2023-04-01T12:19:26;10.20;99.90
13982;DHT22;7065;50.880;5.502;2023-04-01T12:30:57;10.20;99.90
13982;DHT22;7065;50.880;5.502;2023-04-01T12:56:49;10.20;99.90
13982;DHT22;7065;50.880;5.502;2023-04-01T13:02:10;10.20;99.90
13982;DHT22;7065;50.880;5.502;2023-04-01T13:12:42;10.20;99.90
13982;DHT22;7065;50.880;5.502;2023-04-01T13:15:46;10.20;99.90
13982;DHT22;7065;50.880;5.502;2023-04-01T13:27:18;9.90;99.90
13982;DHT22;7065;50.880;5.502;2023-04-01T13:40:21;10.10;99.90
13982;DHT22;7065;50.880;5.502;2023-04-01T13:42:57;10.10;99.90
13982;DHT22;7065;50.880;5.502;2023-04-01T13:58:57;10.10;99.90
13982;DHT22;7065;50.880;5.502;2023-04-01T14:01:39;10.30;99.90
13982;DHT22;7065;50.880;5.502;2023-04-01T14:23:25;10.10;99.90
13982;DHT22;7065;50.880;5.502;2023-04-01T14:28:36;10.20;99.90
13982;DHT22;7065;50.880;5.502;2023-04-01T14:31:34;10.30;99.90
13982;DHT22;7065;50.880;5.502;2023-04-01T14:42:58;10.10;99.90
13982;DHT22;7065;50.880;5.502;2023-04-01T14:45:41;10.10;99.90
13982;DHT22;7065;50.880;5.502;2023-04-01T14:48:36;10.00;99.90
13982;DHT22;7065;50.880;5.502;2023-04-01T14:51:16;10.00;99.90
13982;DHT22;7065;50.880;5.502;2023-04-01T14:53:58;10.00;99.90
13982;DHT22;7065;50.880;5.502;2023-04-01T14:56:36;10.00;99.90
13982;DHT22;7065;50.880;5.502;2023-04-01T14:59:10;10.10;99.90
13982;DHT22;7065;50.880;5.502;2023-04-01T15:04:37;10.10;99.90
13982;DHT22;7065;50.880;5.502;2023-04-01T15:07:11;10.10;99.90
13982;DHT22;7065;50.880;5.502;2023-04-01T15:12:42;10.10;99.90
13982;DHT22;7065;50.880;5.502;2023-04-01T15:18:00;10.10;99.90
13982;DHT22;7065;50.880;5.502;2023-04-01T15:26:16;10.10;99.90
13982;DHT22;7065;50.880;5.502;2023-04-01T15:54:16;10.00;99.90
13982;DHT22;7065;50.880;5.502;2023-04-01T16:05:51;9.90;99.90
13982;DHT22;7065;50.880;5.502;2023-04-01T16:24:48;10.20;99.90
13982;DHT22;7065;50.880;5.502;2023-04-01T16:35:41;10.00;99.90
13982;DHT22;7065;50.880;5.502;2023-04-01T16:43:46;9.90;99.90
13982;DHT22;7065;50.880;5.502;2023-04-01T16:46:36;9.80;99.90
13982;DHT22;7065;50.880;5.502;2023-04-01T16:51:48;9.80;99.90
13982;DHT22;7065;50.880;5.502;2023-04-01T16:57:03;9.70;99.90
13982;DHT22;7065;50.880;5.502;2023-04-01T16:59:44;9.60;99.90
13982;DHT22;7065;50.880;5.502;2023-04-01T17:02:14;9.60;99.90
13982;DHT22;7065;50.880;5.502;2023-04-01T17:05:05;9.60;99.90
13982;DHT22;7065;50.880;5.502;2023-04-01T17:31:10;9.30;99.90
13982;DHT22;7065;50.880;5.502;2023-04-01T17:36:19;9.20;99.90
13982;DHT22;7065;50.880;5.502;2023-04-01T17:49:39;9.10;99.90
13982;DHT22;7065;50.880;5.502;2023-04-01T17:52:15;9.10;99.90
13982;DHT22;7065;50.880;5.502;2023-04-01T17:54:49;9.00;99.90
13982;DHT22;7065;50.880;5.502;2023-04-01T18:00:18;9.00;99.90
13982;DHT22;7065;50.880;5.502;2023-04-01T18:08:12;9.00;99.90
13982;DHT22;7065;50.880;5.502;2023-04-01T18:21:56;8.90;99.90
13982;DHT22;7065;50.880;5.502;2023-04-01T18:24:42;8.80;99.90
13982;DHT22;7065;50.880;5.502;2023-04-01T18:30:24;8.80;99.90
13982;DHT22;7065;50.880;5.502;2023-04-01T18:33:34;8.80;99.90
13982;DHT22;7065;50.880;5.502;2023-04-01T18:35:54;8.80;99.90
13982;DHT22;7065;50.880;5.502;2023-04-01T18:38:29;8.80;99.90
13982;DHT22;7065;50.880;5.502;2023-04-01T18:47:36;8.70;99.90
13982;DHT22;7065;50.880;5.502;2023-04-01T18:50:02;8.70;99.90
13982;DHT22;7065;50.880;5.502;2023-04-01T18:52:43;8.70;99.90
13982;DHT22;7065;50.880;5.502;2023-04-01T18:55:37;8.70;99.90
13982;DHT22;7065;50.880;5.502;2023-04-01T19:06:45;8.60;99.90
13982;DHT22;7065;50.880;5.502;2023-04-01T19:09:31;8.60;99.90
13982;DHT22;7065;50.880;5.502;2023-04-01T19:17:22;8.60;99.90
13982;DHT22;7065;50.880;5.502;2023-04-01T19:20:07;8.60;99.90
13982;DHT22;7065;50.880;5.502;2023-04-01T19:30:51;8.60;99.90
13982;DHT22;7065;50.880;5.502;2023-04-01T19:36:32;8.70;99.90
13982;DHT22;7065;50.880;5.502;2023-04-01T19:52:53;8.70;99.90
13982;DHT22;7065;50.880;5.502;2023-04-01T20:00:52;8.70;99.90
13982;DHT22;7065;50.880;5.502;2023-04-01T20:06:19;8.70;99.90
13982;DHT22;7065;50.880;5.502;2023-04-01T20:09:02;8.70;99.90
13982;DHT22;7065;50.880;5.502;2023-04-01T20:17:30;8.70;99.90
13982;DHT22;7065;50.880;5.502;2023-04-01T20:20:24;8.70;99.90
13982;DHT22;7065;50.880;5.502;2023-04-01T20:25:47;8.70;99.90
13982;DHT22;7065;50.880;5.502;2023-04-01T20:28:24;8.70;99.90
13982;DHT22;7065;50.880;5.502;2023-04-01T20:30:53;8.70;99.90
13982;DHT22;7065;50.880;5.502;2023-04-01T20:33:47;8.80;99.90
13982;DHT22;7065;50.880;5.502;2023-04-01T20:36:32;8.80;99.90
13982;DHT22;7065;50.880;5.502;2023-04-01T20:42:29;8.80;99.90
13982;DHT22;7065;50.880;5.502;2023-04-01T20:50:58;8.80;99.90
13982;DHT22;7065;50.880;5.502;2023-04-01T21:12:49;8.90;99.90
13982;DHT22;7065;50.880;5.502;2023-04-01T21:15:26;9.00;99.90
13982;DHT22;7065;50.880;5.502;2023-04-01T21:18:04;9.00;99.90
13982;DHT22;7065;50.880;5.502;2023-04-01T21:27:34;9.00;99.90
13982;DHT22;7065;50.880;5.502;2023-04-01T21:35:27;9.00;99.90
13982;DHT22;7065;50.880;5.502;2023-04-01T21:47:02;9.00;99.90
13982;DHT22;7065;50.880;5.502;2023-04-01T22:15:17;9.00;99.90
13982;DHT22;7065;50.880;5.502;2023-04-01T22:29:11;8.90;99.90
13982;DHT22;7065;50.880;5.502;2023-04-01T22:32:05;8.80;99.90
13982;DHT22;7065;50.880;5.502;2023-04-01T22:43:04;8.70;99.90
13982;DHT22;7065;50.880;5.502;2023-04-01T22:51:07;8.60;99.90
13982;DHT22;7065;50.880;5.502;2023-04-01T22:54:01;8.60;99.90
13982;DHT22;7065;50.880;5.502;2023-04-01T22:56:41;8.50;99.90
13982;DHT22;7065;50.880;5.502;2023-04-01T22:59:15;8.50;99.90
13982;DHT22;7065;50.880;5.502;2023-04-01T23:01:53;8.50;99.90
13982;DHT22;7065;50.880;5.502;2023-04-01T23:04:24;8.50;99.90
13982;DHT22;7065;50.880;5.502;2023-04-01T23:07:00;8.50;99.90
13982;DHT22;7065;50.880;5.502;2023-04-01T23:09:28;8.40;99.90
13982;DHT22;7065;50.880;5.502;2023-04-01T23:12:02;8.30;99.90
13982;DHT22;7065;50.880;5.502;2023-04-01T23:22:44;8.30;99.90
13982;DHT22;7065;50.880;5.502;2023-04-01T23:25:22;8.30;99.90
13982;DHT22;7065;50.880;5.502;2023-04-01T23:38:16;8.20;99.90
13982;DHT22;7065;50.880;5.502;2023-04-01T23:40:43;8.20;99.90
13982;DHT22;7065;50.880;5.502;2023-04-01T23:43:22;8.20;99.90
13982;DHT22;7065;50.880;5.502;2023-04-01T23:45:49;8.20;99.90
13982;DHT22;7065;50.880;5.502;2023-04-01T23:48:16;8.10;99.90
13982;DHT22;7065;50.880;5.502;2023-04-01T23:50:45;8.20;99.90
13982;DHT22;7065;50.880;5.502;2023-04-01T23:53:34;8.10;99.90
13982;DHT22;7065;50.880;5.502;2023-04-01T23:56:02;8.10;99.90
13982;DHT22;7065;50.880;5.502;2023-04-01T23:58:42;8.00;99.90
